sensor_id;sensor_type;location;lat;lon;timestamp;temperature;humidity
790;DHT22;378;48.844;9.156;2023-07-28T00:00:06;17.60;99.90
790;DHT22;378;48.844;9.156;2023-07-28T00:02:33;17.50;99.90
790;DHT22;378;48.844;9.156;2023-07-28T00:05:00;17.50;99.90
790;DHT22;378;48.844;9.156;2023-07-28T00:07:26;17.50;99.90
790;DHT22;378;48.844;9.156;2023-07-28T00:09:53;17.40;99.90
790;DHT22;378;48.844;9.156;2023-07-28T00:12:20;17.50;99.90
790;DHT22;378;48.844;9.156;2023-07-28T00:14:49;17.50;99.90
790;DHT22;378;48.844;9.156;2023-07-28T00:17:15;17.40;99.90
790;DHT22;378;48.844;9.156;2023-07-28T00:19:42;17.30;99.90
790;DHT22;378;48.844;9.156;2023-07-28T00:22:09;17.30;99.90
790;DHT22;378;48.844;9.156;2023-07-28T00:24:36;17.40;99.90
790;DHT22;378;48.844;9.156;2023-07-28T00:27:03;17.40;99.90
790;DHT22;378;48.844;9.156;2023-07-28T00:29:30;17.40;99.90
790;DHT22;378;48.844;9.156;2023-07-28T00:31:58;17.50;99.90
790;DHT22;378;48.844;9.156;2023-07-28T00:34:25;17.50;99.90
790;DHT22;378;48.844;9.156;2023-07-28T00:36:52;17.50;99.90
790;DHT22;378;48.844;9.156;2023-07-28T00:39:19;17.50;99.90
790;DHT22;378;48.844;9.156;2023-07-28T00:41:46;17.40;99.90
790;DHT22;378;48.844;9.156;2023-07-28T00:44:13;17.30;99.90
790;DHT22;378;48.844;9.156;2023-07-28T00:46:42;17.30;99.90
790;DHT22;378;48.844;9.156;2023-07-28T00:49:10;17.40;99.90
790;DHT22;378;48.844;9.156;2023-07-28T00:51:37;17.40;99.90
790;DHT22;378;48.844;9.156;2023-07-28T00:54:04;17.40;99.90
790;DHT22;378;48.844;9.156;2023-07-28T00:56:33;17.40;99.90
790;DHT22;378;48.844;9.156;2023-07-28T00:58:59;17.40;99.90
790;DHT22;378;48.844;9.156;2023-07-28T01:01:26;17.50;99.90
790;DHT22;378;48.844;9.156;2023-07-28T01:03:53;17.50;99.90
790;DHT22;378;48.844;9.156;2023-07-28T01:06:26;17.50;99.90
790;DHT22;378;48.844;9.156;2023-07-28T01:08:59;17.60;99.90
790;DHT22;378;48.844;9.156;2023-07-28T01:11:29;17.60;99.90
790;DHT22;378;48.844;9.156;2023-07-28T01:13:55;17.60;99.90
790;DHT22;378;48.844;9.156;2023-07-28T01:16:23;17.60;99.90
790;DHT22;378;48.844;9.156;2023-07-28T01:18:50;17.60;99.90
790;DHT22;378;48.844;9.156;2023-07-28T01:21:25;17.60;99.90
790;DHT22;378;48.844;9.156;2023-07-28T01:24:01;17.60;99.90
790;DHT22;378;48.844;9.156;2023-07-28T01:26:33;17.60;99.90
790;DHT22;378;48.844;9.156;2023-07-28T01:29:01;17.60;99.90
790;DHT22;378;48.844;9.156;2023-07-28T01:31:29;17.50;99.90
790;DHT22;378;48.844;9.156;2023-07-28T01:33:56;17.50;99.90
790;DHT22;378;48.844;9.156;2023-07-28T01:36:22;17.40;99.90
790;DHT22;378;48.844;9.156;2023-07-28T01:38:49;17.40;99.90
790;DHT22;378;48.844;9.156;2023-07-28T01:41:16;17.50;99.90
790;DHT22;378;48.844;9.156;2023-07-28T01:43:44;17.60;99.90
790;DHT22;378;48.844;9.156;2023-07-28T01:46:11;17.50;99.90
790;DHT22;378;48.844;9.156;2023-07-28T01:48:38;17.40;99.90
790;DHT22;378;48.844;9.156;2023-07-28T01:51:05;17.40;99.90
790;DHT22;378;48.844;9.156;2023-07-28T01:53:32;17.30;99.90
790;DHT22;378;48.844;9.156;2023-07-28T01:55:58;17.30;99.90
790;DHT22;378;48.844;9.156;2023-07-28T01:58:26;17.30;99.90
790;DHT22;378;48.844;9.156;2023-07-28T02:00:54;17.20;99.90
790;DHT22;378;48.844;9.156;2023-07-28T02:03:21;17.20;99.90
790;DHT22;378;48.844;9.156;2023-07-28T02:05:48;17.20;99.90
790;DHT22;378;48.844;9.156;2023-07-28T02:08:15;17.10;99.90
790;DHT22;378;48.844;9.156;2023-07-28T02:10:44;17.10;99.90
790;DHT22;378;48.844;9.156;2023-07-28T02:13:11;17.10;99.90
790;DHT22;378;48.844;9.156;2023-07-28T02:15:37;17.20;99.90
790;DHT22;378;48.844;9.156;2023-07-28T02:18:06;17.20;99.90
790;DHT22;378;48.844;9.156;2023-07-28T02:20:32;17.20;99.90
790;DHT22;378;48.844;9.156;2023-07-28T02:23:01;17.20;99.90
790;DHT22;378;48.844;9.156;2023-07-28T02:25:28;17.30;99.90
790;DHT22;378;48.844;9.156;2023-07-28T02:27:54;17.30;99.90
790;DHT22;378;48.844;9.156;2023-07-28T02:30:21;17.20;99.90
790;DHT22;378;48.844;9.156;2023-07-28T02:32:48;17.20;99.90
790;DHT22;378;48.844;9.156;2023-07-28T02:35:16;17.10;99.90
790;DHT22;378;48.844;9.156;2023-07-28T02:37:43;17.10;99.90
790;DHT22;378;48.844;9.156;2023-07-28T02:40:11;17.10;99.90
790;DHT22;378;48.844;9.156;2023-07-28T02:42:38;17.10;99.90
790;DHT22;378;48.844;9.156;2023-07-28T02:45:06;17.00;99.90
790;DHT22;378;48.844;9.156;2023-07-28T02:47:33;17.00;99.90
790;DHT22;378;48.844;9.156;2023-07-28T02:50:00;17.00;99.90
790;DHT22;378;48.844;9.156;2023-07-28T02:52:28;17.10;99.90
790;DHT22;378;48.844;9.156;2023-07-28T02:54:55;17.10;99.90
790;DHT22;378;48.844;9.156;2023-07-28T02:57:22;17.20;99.90
790;DHT22;378;48.844;9.156;2023-07-28T02:59:49;17.20;99.90
790;DHT22;378;48.844;9.156;2023-07-28T03:02:16;17.30;99.90
790;DHT22;378;48.844;9.156;2023-07-28T03:04:42;17.30;99.90
790;DHT22;378;48.844;9.156;2023-07-28T03:07:09;17.40;99.90
790;DHT22;378;48.844;9.156;2023-07-28T03:09:37;17.40;99.90
790;DHT22;378;48.844;9.156;2023-07-28T03:12:05;17.50;99.90
790;DHT22;378;48.844;9.156;2023-07-28T03:14:32;17.60;99.90
790;DHT22;378;48.844;9.156;2023-07-28T03:16:59;17.60;99.90
790;DHT22;378;48.844;9.156;2023-07-28T03:19:25;17.50;99.90
790;DHT22;378;48.844;9.156;2023-07-28T03:21:52;17.50;99.90
790;DHT22;378;48.844;9.156;2023-07-28T03:24:19;17.60;99.90
790;DHT22;378;48.844;9.156;2023-07-28T03:26:47;17.60;99.90
790;DHT22;378;48.844;9.156;2023-07-28T03:29:14;17.70;99.90
790;DHT22;378;48.844;9.156;2023-07-28T03:31:41;17.80;99.90
790;DHT22;378;48.844;9.156;2023-07-28T03:34:07;17.80;99.90
790;DHT22;378;48.844;9.156;2023-07-28T03:36:34;17.80;99.90
790;DHT22;378;48.844;9.156;2023-07-28T03:39:01;17.80;99.90
790;DHT22;378;48.844;9.156;2023-07-28T03:41:28;17.80;99.90
790;DHT22;378;48.844;9.156;2023-07-28T03:43:56;17.80;99.90
790;DHT22;378;48.844;9.156;2023-07-28T03:46:23;17.80;99.90
790;DHT22;378;48.844;9.156;2023-07-28T03:48:50;17.80;99.90
790;DHT22;378;48.844;9.156;2023-07-28T03:51:17;17.80;99.90
790;DHT22;378;48.844;9.156;2023-07-28T03:53:43;17.80;99.90
790;DHT22;378;48.844;9.156;2023-07-28T03:56:10;17.80;99.90
790;DHT22;378;48.844;9.156;2023-07-28T03:58:37;17.90;99.90
790;DHT22;378;48.844;9.156;2023-07-28T04:01:05;17.90;99.90
790;DHT22;378;48.844;9.156;2023-07-28T04:03:34;17.90;99.90
790;DHT22;378;48.844;9.156;2023-07-28T04:06:05;17.90;99.90
790;DHT22;378;48.844;9.156;2023-07-28T04:08:32;18.00;99.90
790;DHT22;378;48.844;9.156;2023-07-28T04:10:59;17.90;99.90
790;DHT22;378;48.844;9.156;2023-07-28T04:13:25;18.00;99.90
790;DHT22;378;48.844;9.156;2023-07-28T04:15:52;18.00;99.90
790;DHT22;378;48.844;9.156;2023-07-28T04:18:20;18.00;99.90
790;DHT22;378;48.844;9.156;2023-07-28T04:20:48;17.90;99.90
790;DHT22;378;48.844;9.156;2023-07-28T04:23:15;17.90;99.90
790;DHT22;378;48.844;9.156;2023-07-28T04:25:42;17.80;99.90
790;DHT22;378;48.844;9.156;2023-07-28T04:28:09;17.80;99.90
790;DHT22;378;48.844;9.156;2023-07-28T04:30:35;17.70;99.90
790;DHT22;378;48.844;9.156;2023-07-28T04:33:02;17.70;99.90
790;DHT22;378;48.844;9.156;2023-07-28T04:35:31;17.70;99.90
790;DHT22;378;48.844;9.156;2023-07-28T04:37:58;17.70;99.90
790;DHT22;378;48.844;9.156;2023-07-28T04:40:25;17.70;99.90
790;DHT22;378;48.844;9.156;2023-07-28T04:42:51;17.60;99.90
790;DHT22;378;48.844;9.156;2023-07-28T04:45:19;17.60;99.90
790;DHT22;378;48.844;9.156;2023-07-28T04:47:46;17.50;99.90
790;DHT22;378;48.844;9.156;2023-07-28T04:50:12;17.40;99.90
790;DHT22;378;48.844;9.156;2023-07-28T04:52:41;17.40;99.90
790;DHT22;378;48.844;9.156;2023-07-28T04:55:08;17.30;99.90
790;DHT22;378;48.844;9.156;2023-07-28T04:57:35;17.30;99.90
790;DHT22;378;48.844;9.156;2023-07-28T05:00:02;17.30;99.90
790;DHT22;378;48.844;9.156;2023-07-28T05:02:29;17.20;99.90
790;DHT22;378;48.844;9.156;2023-07-28T05:04:56;17.20;99.90
790;DHT22;378;48.844;9.156;2023-07-28T05:07:23;17.20;99.90
790;DHT22;378;48.844;9.156;2023-07-28T05:09:51;17.20;99.90
790;DHT22;378;48.844;9.156;2023-07-28T05:12:18;17.30;99.90
790;DHT22;378;48.844;9.156;2023-07-28T05:14:44;17.30;99.90
790;DHT22;378;48.844;9.156;2023-07-28T05:17:11;17.20;99.90
790;DHT22;378;48.844;9.156;2023-07-28T05:19:38;17.10;99.90
790;DHT22;378;48.844;9.156;2023-07-28T05:22:05;17.20;99.90
790;DHT22;378;48.844;9.156;2023-07-28T05:24:33;17.10;99.90
790;DHT22;378;48.844;9.156;2023-07-28T05:27:01;17.10;99.90
790;DHT22;378;48.844;9.156;2023-07-28T05:29:28;17.20;99.90
790;DHT22;378;48.844;9.156;2023-07-28T05:31:55;17.10;99.90
790;DHT22;378;48.844;9.156;2023-07-28T05:34:21;17.10;99.90
790;DHT22;378;48.844;9.156;2023-07-28T05:36:49;17.00;99.90
790;DHT22;378;48.844;9.156;2023-07-28T05:39:15;16.90;99.90
790;DHT22;378;48.844;9.156;2023-07-28T05:41:42;16.90;99.90
790;DHT22;378;48.844;9.156;2023-07-28T05:44:10;16.90;99.90
790;DHT22;378;48.844;9.156;2023-07-28T05:46:37;16.90;99.90
790;DHT22;378;48.844;9.156;2023-07-28T05:49:04;17.00;99.90
790;DHT22;378;48.844;9.156;2023-07-28T05:51:31;17.00;99.90
790;DHT22;378;48.844;9.156;2023-07-28T05:53:58;17.00;99.90
790;DHT22;378;48.844;9.156;2023-07-28T05:56:25;17.00;99.90
790;DHT22;378;48.844;9.156;2023-07-28T05:58:52;17.00;99.90
790;DHT22;378;48.844;9.156;2023-07-28T06:01:20;17.00;99.90
790;DHT22;378;48.844;9.156;2023-07-28T06:03:47;17.00;99.90
790;DHT22;378;48.844;9.156;2023-07-28T06:06:13;17.00;99.90
790;DHT22;378;48.844;9.156;2023-07-28T06:08:40;17.10;99.90
790;DHT22;378;48.844;9.156;2023-07-28T06:11:07;17.20;99.90
790;DHT22;378;48.844;9.156;2023-07-28T06:13:34;17.20;99.90
790;DHT22;378;48.844;9.156;2023-07-28T06:16:01;17.20;99.90
790;DHT22;378;48.844;9.156;2023-07-28T06:18:32;17.30;99.90
790;DHT22;378;48.844;9.156;2023-07-28T06:21:01;17.30;99.90
790;DHT22;378;48.844;9.156;2023-07-28T06:23:27;17.30;99.90
790;DHT22;378;48.844;9.156;2023-07-28T06:25:54;17.30;99.90
790;DHT22;378;48.844;9.156;2023-07-28T06:28:22;17.30;99.90
790;DHT22;378;48.844;9.156;2023-07-28T06:30:53;17.30;99.90
790;DHT22;378;48.844;9.156;2023-07-28T06:33:20;17.30;99.90
790;DHT22;378;48.844;9.156;2023-07-28T06:35:48;17.30;99.90
790;DHT22;378;48.844;9.156;2023-07-28T06:38:15;17.40;99.90
790;DHT22;378;48.844;9.156;2023-07-28T06:40:42;17.40;99.90
790;DHT22;378;48.844;9.156;2023-07-28T06:43:10;17.40;99.90
790;DHT22;378;48.844;9.156;2023-07-28T06:45:36;17.40;99.90
790;DHT22;378;48.844;9.156;2023-07-28T06:48:04;17.40;99.90
790;DHT22;378;48.844;9.156;2023-07-28T06:50:30;17.40;99.90
790;DHT22;378;48.844;9.156;2023-07-28T06:52:59;17.40;99.90
790;DHT22;378;48.844;9.156;2023-07-28T06:55:26;17.50;99.90
790;DHT22;378;48.844;9.156;2023-07-28T06:57:52;17.50;99.90
790;DHT22;378;48.844;9.156;2023-07-28T07:00:19;17.60;99.90
790;DHT22;378;48.844;9.156;2023-07-28T07:02:46;17.50;99.90
790;DHT22;378;48.844;9.156;2023-07-28T07:05:13;17.50;99.90
790;DHT22;378;48.844;9.156;2023-07-28T07:07:41;17.60;99.90
790;DHT22;378;48.844;9.156;2023-07-28T07:10:09;17.50;99.90
790;DHT22;378;48.844;9.156;2023-07-28T07:12:36;17.50;99.90
790;DHT22;378;48.844;9.156;2023-07-28T07:15:04;17.60;99.90
790;DHT22;378;48.844;9.156;2023-07-28T07:17:31;17.60;99.90
790;DHT22;378;48.844;9.156;2023-07-28T07:19:58;17.70;99.90
790;DHT22;378;48.844;9.156;2023-07-28T07:22:25;17.70;99.90
790;DHT22;378;48.844;9.156;2023-07-28T07:24:53;17.60;99.90
790;DHT22;378;48.844;9.156;2023-07-28T07:27:23;17.60;99.90
790;DHT22;378;48.844;9.156;2023-07-28T07:29:50;17.60;99.90
790;DHT22;378;48.844;9.156;2023-07-28T07:32:17;17.60;99.90
790;DHT22;378;48.844;9.156;2023-07-28T07:34:44;17.60;99.90
790;DHT22;378;48.844;9.156;2023-07-28T07:37:11;17.60;99.90
790;DHT22;378;48.844;9.156;2023-07-28T07:39:38;17.80;99.90
790;DHT22;378;48.844;9.156;2023-07-28T07:42:09;17.80;99.90
790;DHT22;378;48.844;9.156;2023-07-28T07:44:37;17.90;99.90
790;DHT22;378;48.844;9.156;2023-07-28T07:47:11;17.90;99.90
790;DHT22;378;48.844;9.156;2023-07-28T07:49:38;18.00;99.90
790;DHT22;378;48.844;9.156;2023-07-28T07:52:06;17.90;99.90
790;DHT22;378;48.844;9.156;2023-07-28T07:54:34;17.90;99.90
790;DHT22;378;48.844;9.156;2023-07-28T07:57:00;17.90;99.90
790;DHT22;378;48.844;9.156;2023-07-28T07:59:28;18.10;99.90
790;DHT22;378;48.844;9.156;2023-07-28T08:01:59;18.20;99.90
790;DHT22;378;48.844;9.156;2023-07-28T08:04:28;18.20;99.90
790;DHT22;378;48.844;9.156;2023-07-28T08:06:55;18.30;99.90
790;DHT22;378;48.844;9.156;2023-07-28T08:09:22;18.30;99.90
790;DHT22;378;48.844;9.156;2023-07-28T08:11:49;18.40;99.90
790;DHT22;378;48.844;9.156;2023-07-28T08:14:16;18.40;99.90
790;DHT22;378;48.844;9.156;2023-07-28T08:16:43;18.40;99.90
790;DHT22;378;48.844;9.156;2023-07-28T08:19:11;18.40;99.90
790;DHT22;378;48.844;9.156;2023-07-28T08:21:38;18.50;99.90
790;DHT22;378;48.844;9.156;2023-07-28T08:24:05;18.30;99.90
790;DHT22;378;48.844;9.156;2023-07-28T08:26:32;18.30;99.90
790;DHT22;378;48.844;9.156;2023-07-28T08:28:58;18.30;99.90
790;DHT22;378;48.844;9.156;2023-07-28T08:31:25;18.40;99.90
790;DHT22;378;48.844;9.156;2023-07-28T08:33:52;18.60;99.90
790;DHT22;378;48.844;9.156;2023-07-28T08:36:20;18.60;99.90
790;DHT22;378;48.844;9.156;2023-07-28T08:38:47;18.70;99.90
790;DHT22;378;48.844;9.156;2023-07-28T08:41:14;18.70;99.90
790;DHT22;378;48.844;9.156;2023-07-28T08:43:42;18.60;99.90
790;DHT22;378;48.844;9.156;2023-07-28T08:46:09;18.70;99.90
790;DHT22;378;48.844;9.156;2023-07-28T08:48:35;18.70;99.90
790;DHT22;378;48.844;9.156;2023-07-28T08:51:03;18.70;99.90
790;DHT22;378;48.844;9.156;2023-07-28T08:53:31;18.80;99.90
790;DHT22;378;48.844;9.156;2023-07-28T08:55:58;18.80;99.90
790;DHT22;378;48.844;9.156;2023-07-28T08:58:25;18.80;99.90
790;DHT22;378;48.844;9.156;2023-07-28T09:00:52;18.80;99.90
790;DHT22;378;48.844;9.156;2023-07-28T09:03:20;18.90;99.90
790;DHT22;378;48.844;9.156;2023-07-28T09:05:48;18.90;99.90
790;DHT22;378;48.844;9.156;2023-07-28T09:08:15;18.90;99.90
790;DHT22;378;48.844;9.156;2023-07-28T09:10:45;19.00;99.90
790;DHT22;378;48.844;9.156;2023-07-28T09:13:15;19.00;99.90
790;DHT22;378;48.844;9.156;2023-07-28T09:15:42;19.10;99.90
790;DHT22;378;48.844;9.156;2023-07-28T09:18:10;19.20;99.90
790;DHT22;378;48.844;9.156;2023-07-28T09:20:38;19.20;99.90
790;DHT22;378;48.844;9.156;2023-07-28T09:23:07;19.30;99.90
790;DHT22;378;48.844;9.156;2023-07-28T09:25:35;19.40;99.90
790;DHT22;378;48.844;9.156;2023-07-28T09:28:03;19.40;99.90
790;DHT22;378;48.844;9.156;2023-07-28T09:30:44;19.40;99.90
790;DHT22;378;48.844;9.156;2023-07-28T09:33:11;19.50;99.90
790;DHT22;378;48.844;9.156;2023-07-28T09:35:47;19.60;99.90
790;DHT22;378;48.844;9.156;2023-07-28T09:38:15;19.80;99.90
790;DHT22;378;48.844;9.156;2023-07-28T09:40:43;19.90;99.90
790;DHT22;378;48.844;9.156;2023-07-28T09:43:12;19.90;99.90
790;DHT22;378;48.844;9.156;2023-07-28T09:45:39;19.90;99.90
790;DHT22;378;48.844;9.156;2023-07-28T09:48:07;19.90;99.90
790;DHT22;378;48.844;9.156;2023-07-28T09:50:37;20.00;99.90
790;DHT22;378;48.844;9.156;2023-07-28T09:53:04;20.00;99.90
790;DHT22;378;48.844;9.156;2023-07-28T09:55:35;20.00;99.90
790;DHT22;378;48.844;9.156;2023-07-28T09:58:04;20.00;99.90
790;DHT22;378;48.844;9.156;2023-07-28T10:00:34;20.00;99.90
790;DHT22;378;48.844;9.156;2023-07-28T10:03:01;20.00;99.90
790;DHT22;378;48.844;9.156;2023-07-28T10:05:29;19.80;99.90
790;DHT22;378;48.844;9.156;2023-07-28T10:07:56;19.80;99.90
790;DHT22;378;48.844;9.156;2023-07-28T10:10:24;19.80;99.90
790;DHT22;378;48.844;9.156;2023-07-28T10:12:53;19.90;99.90
790;DHT22;378;48.844;9.156;2023-07-28T10:15:26;19.90;99.90
790;DHT22;378;48.844;9.156;2023-07-28T10:17:56;20.00;99.90
790;DHT22;378;48.844;9.156;2023-07-28T10:20:30;20.10;99.90
790;DHT22;378;48.844;9.156;2023-07-28T10:23:04;20.00;99.90
790;DHT22;378;48.844;9.156;2023-07-28T10:25:36;20.00;99.90
790;DHT22;378;48.844;9.156;2023-07-28T10:28:04;20.00;99.90
790;DHT22;378;48.844;9.156;2023-07-28T10:30:35;19.90;99.90
790;DHT22;378;48.844;9.156;2023-07-28T10:33:05;19.90;99.90
790;DHT22;378;48.844;9.156;2023-07-28T10:35:32;19.90;99.90
790;DHT22;378;48.844;9.156;2023-07-28T10:38:33;19.90;99.90
790;DHT22;378;48.844;9.156;2023-07-28T10:41:13;19.90;99.90
790;DHT22;378;48.844;9.156;2023-07-28T10:43:40;20.00;99.90
790;DHT22;378;48.844;9.156;2023-07-28T10:46:08;20.00;99.90
790;DHT22;378;48.844;9.156;2023-07-28T10:48:40;20.00;99.90
790;DHT22;378;48.844;9.156;2023-07-28T10:51:08;20.00;99.90
790;DHT22;378;48.844;9.156;2023-07-28T10:53:35;19.90;99.90
790;DHT22;378;48.844;9.156;2023-07-28T10:56:02;19.80;99.90
790;DHT22;378;48.844;9.156;2023-07-28T10:58:31;19.90;99.90
790;DHT22;378;48.844;9.156;2023-07-28T11:00:58;19.90;99.90
790;DHT22;378;48.844;9.156;2023-07-28T11:03:25;20.00;99.90
790;DHT22;378;48.844;9.156;2023-07-28T11:05:54;20.00;99.90
790;DHT22;378;48.844;9.156;2023-07-28T11:08:22;20.10;99.90
790;DHT22;378;48.844;9.156;2023-07-28T11:10:49;20.10;99.90
790;DHT22;378;48.844;9.156;2023-07-28T11:13:16;20.10;99.90
790;DHT22;378;48.844;9.156;2023-07-28T11:15:43;20.10;99.90
790;DHT22;378;48.844;9.156;2023-07-28T11:18:10;20.20;99.90
790;DHT22;378;48.844;9.156;2023-07-28T11:20:37;20.30;99.90
790;DHT22;378;48.844;9.156;2023-07-28T11:23:05;20.40;99.90
790;DHT22;378;48.844;9.156;2023-07-28T11:25:34;20.40;99.90
790;DHT22;378;48.844;9.156;2023-07-28T11:28:01;20.40;99.90
790;DHT22;378;48.844;9.156;2023-07-28T11:30:32;20.50;99.90
790;DHT22;378;48.844;9.156;2023-07-28T11:32:59;20.60;99.90
790;DHT22;378;48.844;9.156;2023-07-28T11:35:26;20.70;99.90
790;DHT22;378;48.844;9.156;2023-07-28T11:37:53;20.90;99.90
790;DHT22;378;48.844;9.156;2023-07-28T11:40:23;21.00;99.90
790;DHT22;378;48.844;9.156;2023-07-28T11:42:53;21.30;99.90
790;DHT22;378;48.844;9.156;2023-07-28T11:45:21;21.40;99.90
790;DHT22;378;48.844;9.156;2023-07-28T11:47:55;21.50;99.90
790;DHT22;378;48.844;9.156;2023-07-28T11:50:22;21.70;99.90
790;DHT22;378;48.844;9.156;2023-07-28T11:52:49;21.40;99.90
790;DHT22;378;48.844;9.156;2023-07-28T11:55:16;21.50;99.90
790;DHT22;378;48.844;9.156;2023-07-28T11:57:46;21.70;99.90
790;DHT22;378;48.844;9.156;2023-07-28T12:00:14;21.80;99.90
790;DHT22;378;48.844;9.156;2023-07-28T12:02:42;21.60;99.90
790;DHT22;378;48.844;9.156;2023-07-28T12:05:12;21.60;99.90
790;DHT22;378;48.844;9.156;2023-07-28T12:07:39;21.70;99.90
790;DHT22;378;48.844;9.156;2023-07-28T12:10:07;21.60;99.90
790;DHT22;378;48.844;9.156;2023-07-28T12:12:46;21.30;99.90
790;DHT22;378;48.844;9.156;2023-07-28T12:15:24;20.90;99.90
790;DHT22;378;48.844;9.156;2023-07-28T12:20:40;20.30;99.90
790;DHT22;378;48.844;9.156;2023-07-28T12:23:12;20.20;99.90
790;DHT22;378;48.844;9.156;2023-07-28T12:25:39;20.10;99.90
790;DHT22;378;48.844;9.156;2023-07-28T12:28:07;19.90;99.90
790;DHT22;378;48.844;9.156;2023-07-28T12:30:35;19.80;99.90
790;DHT22;378;48.844;9.156;2023-07-28T12:33:02;19.70;99.90
790;DHT22;378;48.844;9.156;2023-07-28T12:35:30;19.60;99.90
790;DHT22;378;48.844;9.156;2023-07-28T12:38:00;19.60;99.90
790;DHT22;378;48.844;9.156;2023-07-28T12:40:27;19.50;99.90
790;DHT22;378;48.844;9.156;2023-07-28T12:42:55;19.40;99.90
790;DHT22;378;48.844;9.156;2023-07-28T12:45:23;19.40;99.90
790;DHT22;378;48.844;9.156;2023-07-28T12:47:51;19.40;99.90
790;DHT22;378;48.844;9.156;2023-07-28T12:50:19;19.40;99.90
790;DHT22;378;48.844;9.156;2023-07-28T12:52:46;19.60;99.90
790;DHT22;378;48.844;9.156;2023-07-28T12:55:14;19.70;99.90
790;DHT22;378;48.844;9.156;2023-07-28T12:57:41;19.80;99.90
790;DHT22;378;48.844;9.156;2023-07-28T13:00:09;19.90;99.90
790;DHT22;378;48.844;9.156;2023-07-28T13:02:41;19.80;99.90
790;DHT22;378;48.844;9.156;2023-07-28T13:05:09;19.70;99.90
790;DHT22;378;48.844;9.156;2023-07-28T13:07:36;19.70;99.90
790;DHT22;378;48.844;9.156;2023-07-28T13:10:05;19.60;99.90
790;DHT22;378;48.844;9.156;2023-07-28T13:12:32;19.60;99.90
790;DHT22;378;48.844;9.156;2023-07-28T13:14:58;19.60;99.90
790;DHT22;378;48.844;9.156;2023-07-28T13:17:25;19.60;99.90
790;DHT22;378;48.844;9.156;2023-07-28T13:19:54;19.60;99.90
790;DHT22;378;48.844;9.156;2023-07-28T13:22:22;19.60;99.90
790;DHT22;378;48.844;9.156;2023-07-28T13:24:49;19.60;99.90
790;DHT22;378;48.844;9.156;2023-07-28T13:27:16;19.60;99.90
790;DHT22;378;48.844;9.156;2023-07-28T13:29:43;19.60;99.90
790;DHT22;378;48.844;9.156;2023-07-28T13:32:23;19.60;99.90
790;DHT22;378;48.844;9.156;2023-07-28T13:34:50;19.60;99.90
790;DHT22;378;48.844;9.156;2023-07-28T13:37:19;19.40;99.90
790;DHT22;378;48.844;9.156;2023-07-28T13:39:46;19.40;99.90
790;DHT22;378;48.844;9.156;2023-07-28T13:42:13;19.30;99.90
790;DHT22;378;48.844;9.156;2023-07-28T13:44:41;19.30;99.90
790;DHT22;378;48.844;9.156;2023-07-28T13:47:08;19.30;99.90
790;DHT22;378;48.844;9.156;2023-07-28T13:49:35;19.20;99.90
790;DHT22;378;48.844;9.156;2023-07-28T13:52:03;19.20;99.90
790;DHT22;378;48.844;9.156;2023-07-28T13:54:31;19.20;99.90
790;DHT22;378;48.844;9.156;2023-07-28T13:56:58;19.10;99.90
790;DHT22;378;48.844;9.156;2023-07-28T13:59:25;19.00;99.90
790;DHT22;378;48.844;9.156;2023-07-28T14:01:52;19.00;99.90
790;DHT22;378;48.844;9.156;2023-07-28T14:04:20;19.00;99.90
790;DHT22;378;48.844;9.156;2023-07-28T14:06:47;18.90;99.90
790;DHT22;378;48.844;9.156;2023-07-28T14:09:13;18.80;99.90
790;DHT22;378;48.844;9.156;2023-07-28T14:11:42;18.80;99.90
790;DHT22;378;48.844;9.156;2023-07-28T14:14:08;18.80;99.90
790;DHT22;378;48.844;9.156;2023-07-28T14:16:35;18.90;99.90
790;DHT22;378;48.844;9.156;2023-07-28T14:19:02;18.90;99.90
790;DHT22;378;48.844;9.156;2023-07-28T14:21:30;18.90;99.90
790;DHT22;378;48.844;9.156;2023-07-28T14:23:58;18.90;99.90
790;DHT22;378;48.844;9.156;2023-07-28T14:26:24;18.90;99.90
790;DHT22;378;48.844;9.156;2023-07-28T14:28:53;19.00;99.90
790;DHT22;378;48.844;9.156;2023-07-28T14:31:19;18.90;99.90
790;DHT22;378;48.844;9.156;2023-07-28T14:33:46;18.80;99.90
790;DHT22;378;48.844;9.156;2023-07-28T14:36:13;18.80;99.90
790;DHT22;378;48.844;9.156;2023-07-28T14:38:40;18.80;99.90
790;DHT22;378;48.844;9.156;2023-07-28T14:41:07;18.70;99.90
790;DHT22;378;48.844;9.156;2023-07-28T14:43:33;18.80;99.90
790;DHT22;378;48.844;9.156;2023-07-28T14:46:02;18.80;99.90
790;DHT22;378;48.844;9.156;2023-07-28T14:48:28;18.90;99.90
790;DHT22;378;48.844;9.156;2023-07-28T14:50:55;18.90;99.90
790;DHT22;378;48.844;9.156;2023-07-28T14:53:29;18.90;99.90
790;DHT22;378;48.844;9.156;2023-07-28T14:55:56;18.90;99.90
790;DHT22;378;48.844;9.156;2023-07-28T14:58:23;18.90;99.90
790;DHT22;378;48.844;9.156;2023-07-28T15:00:50;18.90;99.90
790;DHT22;378;48.844;9.156;2023-07-28T15:03:18;18.90;99.90
790;DHT22;378;48.844;9.156;2023-07-28T15:05:45;18.80;99.90
790;DHT22;378;48.844;9.156;2023-07-28T15:08:13;18.90;99.90
790;DHT22;378;48.844;9.156;2023-07-28T15:10:40;18.90;99.90
790;DHT22;378;48.844;9.156;2023-07-28T15:13:07;19.00;99.90
790;DHT22;378;48.844;9.156;2023-07-28T15:15:33;19.00;99.90
790;DHT22;378;48.844;9.156;2023-07-28T15:18:00;19.00;99.90
790;DHT22;378;48.844;9.156;2023-07-28T15:20:29;19.10;99.90
790;DHT22;378;48.844;9.156;2023-07-28T15:22:56;19.00;99.90
790;DHT22;378;48.844;9.156;2023-07-28T15:25:24;19.00;99.90
790;DHT22;378;48.844;9.156;2023-07-28T15:27:51;19.10;99.90
790;DHT22;378;48.844;9.156;2023-07-28T15:30:18;19.00;99.90
790;DHT22;378;48.844;9.156;2023-07-28T15:32:44;19.10;99.90
790;DHT22;378;48.844;9.156;2023-07-28T15:35:12;19.10;99.90
790;DHT22;378;48.844;9.156;2023-07-28T15:37:40;19.00;99.90
790;DHT22;378;48.844;9.156;2023-07-28T15:40:07;19.00;99.90
790;DHT22;378;48.844;9.156;2023-07-28T15:42:34;19.00;99.90
790;DHT22;378;48.844;9.156;2023-07-28T15:45:01;18.90;99.90
790;DHT22;378;48.844;9.156;2023-07-28T15:47:29;19.00;99.90
790;DHT22;378;48.844;9.156;2023-07-28T15:49:59;19.00;99.90
790;DHT22;378;48.844;9.156;2023-07-28T15:52:26;19.00;99.90
790;DHT22;378;48.844;9.156;2023-07-28T15:54:54;19.00;99.90
790;DHT22;378;48.844;9.156;2023-07-28T15:57:21;19.00;99.90
790;DHT22;378;48.844;9.156;2023-07-28T15:59:48;19.00;99.90
790;DHT22;378;48.844;9.156;2023-07-28T16:02:15;19.00;99.90
790;DHT22;378;48.844;9.156;2023-07-28T16:04:42;18.90;99.90
790;DHT22;378;48.844;9.156;2023-07-28T16:07:08;19.00;99.90
790;DHT22;378;48.844;9.156;2023-07-28T16:09:35;19.00;99.90
790;DHT22;378;48.844;9.156;2023-07-28T16:12:04;19.00;99.90
790;DHT22;378;48.844;9.156;2023-07-28T16:14:31;19.10;99.90
790;DHT22;378;48.844;9.156;2023-07-28T16:16:58;19.10;99.90
790;DHT22;378;48.844;9.156;2023-07-28T16:19:25;19.10;99.90
790;DHT22;378;48.844;9.156;2023-07-28T16:21:52;19.10;99.90
790;DHT22;378;48.844;9.156;2023-07-28T16:24:19;19.20;99.90
790;DHT22;378;48.844;9.156;2023-07-28T16:26:46;19.20;99.90
790;DHT22;378;48.844;9.156;2023-07-28T16:29:14;19.10;99.90
790;DHT22;378;48.844;9.156;2023-07-28T16:31:41;19.20;99.90
790;DHT22;378;48.844;9.156;2023-07-28T16:34:08;19.20;99.90
790;DHT22;378;48.844;9.156;2023-07-28T16:36:35;19.20;99.90
790;DHT22;378;48.844;9.156;2023-07-28T16:39:01;19.20;99.90